sphinxsearch.com alexa rank chart, sphinxsearch.com alexa rank daily changes

sphinxsearch.com alexa rank chart, sphinxsearch.com alexa rank daily changes

sphinxsearch.com
Actual rank:
147 818

RANK HISTORY

Date Rank Diff
2017/08/20 147 818 -10 923
2017/08/19 158 741 -687
2017/08/18 159 428 -277
2017/08/17 159 705 -3 246
2017/08/16 162 951 -762
2017/08/15 163 713 -2 017
2017/08/14 165 730 +1 326
2017/08/13 164 404 -6 503
2017/08/12 170 907 +4 004
2017/08/11 166 903 +3 937
2017/08/10 162 966 +8 132
2017/08/09 154 834 +874
2017/08/08 153 960 +687
2017/08/07 153 273 +1 855
2017/08/06 151 418 -503
2017/08/05 151 921 -8 759
2017/08/04 160 680 -1 270
2017/08/03 161 950 -2 524
2017/08/02 164 474 -705
2017/08/01 165 179 +1 194
2017/07/31 163 985 +2 744
2017/07/30 161 241 -9 783
2017/07/29 171 024 -511
2017/07/28 171 535 -7 626
2017/07/27 179 161 -9 257
2017/07/26 188 418 +1 607
2017/07/25 186 811 -1 581
2017/07/24 188 392 +2 105
2017/07/23 186 287 +9 331
2017/07/22 176 956 -4 632
2017/07/21 181 588 -3 196
2017/07/20 184 784 -6 285
2017/07/19 191 069 +333
2017/07/18 190 736 +15 457
2017/07/17 175 279 +1 598
2017/07/16 173 681 -2 179
2017/07/15 175 860 +9 218
2017/07/14 166 642 +936
2017/07/13 165 706 -170
2017/07/12 165 876 -2 304
2017/07/11 168 180 +326
2017/07/10 167 854 -8 464
2017/07/09 176 318 +4 778
2017/07/08 171 540 +968
2017/07/07 170 572 -3 179
2017/07/06 173 751 -126
2017/07/05 173 877 +1 212
2017/07/04 172 665 +3 953
2017/07/03 168 712 +7 537
2017/07/02 161 175 +2 155
2017/07/01 159 020 +1 162
2017/06/30 157 858 +2 009
2017/06/29 155 849 +6 311
2017/06/28 149 538 -2 881
2017/06/27 152 419 +6 023
2017/06/26 146 396 +981
2017/06/25 145 415 +619
2017/06/24 144 796 +821
2017/06/23 143 975 -1 843
2017/06/22 145 818 +441
2017/06/21 145 377

WIDGET FOR YOUR SITE

DOMAINS WITH THE NEAREST RANK

Domain Rank
toyo-2.jp 147 813
mtshastanews.com 147 814
ott.ir 147 815
humanresourcesonline.net 147 816
shuge.net 147 817
sphinxsearch.com 147 818
orico.cc 147 819
sanzhisongshu.tmall.com 147 820
keepresource.com 147 821
sidewalkpro.com 147 822
mywordtemplates.org 147 823

DOMAINS WITH THE NEAREST RANK BY TLD .com

Domain Rank
premieramerica.com 147 802
rtthemes.com 147 803
hoaxbuster.com 147 806
hiddenobjectgames.com 147 808
mtshastanews.com 147 814
sphinxsearch.com 147 818
keepresource.com 147 821
sidewalkpro.com 147 822
pcgamescdn.com 147 826
hubba.com 147 831
dpex.com 147 833